createdAt,value
2019-04-20T00:01:19.945Z,15.40
2019-04-20T00:03:45.645Z,15.30
2019-04-20T00:06:17.667Z,15.20
2019-04-20T00:08:55.670Z,15.20
2019-04-20T00:11:27.331Z,15.10
2019-04-20T00:14:00.147Z,15.10
2019-04-20T00:16:25.059Z,15.10
2019-04-20T00:18:59.112Z,15.10
2019-04-20T00:21:46.936Z,15.00
2019-04-20T00:24:23.362Z,15.00
2019-04-20T00:27:22.422Z,14.90
2019-04-20T00:29:42.344Z,14.80
2019-04-20T00:32:09.851Z,14.80
2019-04-20T00:34:37.262Z,14.70
2019-04-20T00:37:05.309Z,14.60
2019-04-20T00:39:36.170Z,14.60
2019-04-20T00:42:10.859Z,14.50
2019-04-20T00:44:41.277Z,14.50
2019-04-20T00:47:21.873Z,14.50
2019-04-20T00:49:52.288Z,14.40
2019-04-20T00:52:46.998Z,14.30
2019-04-20T00:54:47.250Z,14.30
2019-04-20T00:57:33.823Z,14.20
2019-04-20T01:00:12.547Z,14.20
2019-04-20T01:02:37.168Z,14.10
2019-04-20T01:05:12.824Z,14.10
2019-04-20T01:07:45.108Z,14.00
2019-04-20T01:10:13.186Z,13.90
2019-04-20T01:12:44.491Z,13.90
2019-04-20T01:15:24.416Z,13.80
2019-04-20T01:17:48.278Z,13.80
2019-04-20T01:20:18.527Z,13.80
2019-04-20T01:22:57.250Z,13.80
2019-04-20T01:25:28.310Z,13.70
2019-04-20T01:28:08.100Z,13.70
2019-04-20T01:30:32.348Z,13.70
2019-04-20T01:33:12.473Z,13.70
2019-04-20T01:35:44.123Z,13.60
2019-04-20T01:38:16.872Z,13.60
2019-04-20T01:40:33.717Z,13.60
2019-04-20T01:43:05.574Z,13.60
2019-04-20T01:45:39.154Z,13.50
2019-04-20T01:48:08.283Z,13.50
2019-04-20T01:50:50.007Z,13.40
2019-04-20T01:53:23.761Z,13.40
2019-04-20T01:56:05.404Z,13.40
2019-04-20T01:58:55.457Z,13.40
2019-04-20T02:01:09.824Z,13.40
2019-04-20T02:03:40.196Z,13.30
2019-04-20T02:06:15.048Z,13.30
2019-04-20T02:08:44.147Z,13.20
2019-04-20T02:11:23.141Z,13.10
2019-04-20T02:13:52.846Z,13.10
2019-04-20T02:16:26.454Z,13.00
2019-04-20T02:19:10.785Z,13.10
2019-04-20T02:21:43.372Z,13.00
2019-04-20T02:24:01.293Z,13.00
2019-04-20T02:26:32.326Z,13.00
2019-04-20T02:29:25.065Z,13.00
2019-04-20T02:32:19.854Z,12.90
2019-04-20T02:34:49.606Z,12.90
2019-04-20T02:37:33.440Z,12.90
2019-04-20T02:39:51.450Z,12.80
2019-04-20T02:42:34.582Z,12.80
2019-04-20T02:45:10.875Z,12.80
2019-04-20T02:47:47.393Z,12.80
2019-04-20T02:52:46.150Z,12.80
2019-04-20T02:55:08.746Z,12.70
2019-04-20T03:00:18.933Z,12.60
2019-04-20T03:02:27.232Z,12.60
2019-04-20T03:04:51.024Z,12.60
2019-04-20T03:07:31.454Z,12.60
2019-04-20T03:10:06.541Z,12.50
2019-04-20T03:12:47.790Z,12.50
2019-04-20T03:15:12.906Z,12.40
2019-04-20T03:17:46.323Z,12.40
2019-04-20T03:20:20.238Z,12.40
2019-04-20T03:23:15.328Z,12.30
2019-04-20T03:25:45.060Z,12.30
2019-04-20T03:28:15.511Z,12.30
2019-04-20T03:36:12.146Z,12.10
2019-04-20T03:38:39.453Z,12.10
2019-04-20T03:40:59.506Z,12.10
2019-04-20T03:43:20.212Z,12.00
2019-04-20T03:45:57.727Z,12.00
2019-04-20T03:48:45.270Z,12.00
2019-04-20T03:51:23.921Z,12.00
2019-04-20T03:54:05.433Z,12.00
2019-04-20T03:56:54.677Z,11.90
2019-04-20T03:59:42.129Z,11.90
2019-04-20T04:02:47.421Z,11.80
2019-04-20T04:05:05.523Z,11.80
2019-04-20T04:07:26.779Z,11.80
2019-04-20T04:10:08.540Z,11.80
2019-04-20T04:12:58.887Z,11.80
2019-04-20T04:15:29.676Z,11.80
2019-04-20T04:18:07.544Z,11.80
2019-04-20T04:20:38.746Z,11.80
2019-04-20T04:23:22.228Z,11.90
2019-04-20T04:25:57.935Z,11.90
2019-04-20T04:28:27.278Z,12.00
2019-04-20T04:30:59.430Z,12.00
2019-04-20T04:36:00.501Z,12.20
2019-04-20T04:38:40.552Z,12.20
2019-04-20T04:41:13.971Z,12.20
2019-04-20T04:43:40.099Z,12.30
2019-04-20T04:45:55.514Z,12.30
2019-04-20T04:48:33.566Z,12.40
2019-04-20T04:51:05.141Z,12.50
2019-04-20T04:53:44.230Z,12.50
2019-04-20T04:56:09.417Z,12.70
2019-04-20T04:58:36.273Z,12.70
2019-04-20T05:01:11.784Z,12.90
2019-04-20T05:04:05.281Z,13.00
2019-04-20T05:06:26.450Z,13.10
2019-04-20T05:08:49.907Z,13.20
2019-04-20T05:11:17.197Z,13.30
2019-04-20T05:13:56.923Z,13.40
2019-04-20T05:16:40.991Z,13.50
2019-04-20T05:21:56.558Z,13.70
2019-04-20T05:24:26.920Z,13.80
2019-04-20T05:27:13.423Z,13.90
2019-04-20T05:29:27.072Z,14.00
2019-04-20T05:32:03.509Z,14.10
2019-04-20T05:34:54.014Z,14.30
2019-04-20T05:37:27.514Z,14.40
2019-04-20T05:39:53.227Z,14.50
2019-04-20T05:42:30.304Z,14.60
2019-04-20T05:44:55.736Z,14.70
2019-04-20T05:47:29.131Z,14.80
2019-04-20T05:49:57.074Z,15.00
2019-04-20T05:55:08.810Z,15.30
2019-04-20T05:57:45.278Z,15.50
2019-04-20T06:00:14.184Z,15.80
2019-04-20T06:02:45.128Z,16.30
2019-04-20T06:05:16.071Z,17.50
2019-04-20T06:07:48.855Z,19.20
2019-04-20T06:10:25.999Z,21.50
2019-04-20T06:12:51.687Z,24.20
2019-04-20T06:15:36.689Z,26.60
2019-04-20T06:18:06.336Z,28.70
2019-04-20T06:20:43.760Z,30.60
2019-04-20T06:23:41.348Z,32.00
2019-04-20T06:26:40.004Z,33.10
2019-04-20T06:28:46.343Z,34.30
2019-04-20T06:31:40.692Z,35.40
2019-04-20T06:39:33.226Z,37.40
2019-04-20T06:52:26.191Z,40.50
2019-04-20T06:55:05.246Z,40.60
2019-04-20T06:57:54.185Z,40.80
2019-04-20T07:00:15.338Z,39.90
2019-04-20T07:05:20.690Z,40.00
2019-04-20T07:07:54.740Z,39.80
2019-04-20T07:10:28.615Z,39.70
2019-04-20T07:12:49.341Z,40.50
2019-04-20T07:15:22.876Z,41.00
2019-04-20T07:18:03.212Z,41.20
2019-04-20T07:20:51.669Z,41.60
2019-04-20T07:25:54.188Z,42.80
2019-04-20T07:28:31.474Z,44.00
2019-04-20T07:31:01.720Z,44.00
2019-04-20T07:33:34.916Z,43.60
2019-04-20T07:36:05.785Z,45.20
2019-04-20T07:38:40.483Z,46.50
2019-04-20T07:41:13.832Z,47.20
2019-04-20T07:43:55.691Z,47.70
2019-04-20T07:46:34.837Z,48.30
2019-04-20T07:48:49.080Z,48.90
2019-04-20T07:51:09.082Z,49.60
2019-04-20T07:53:57.514Z,50.00
2019-04-20T07:56:34.665Z,50.20
2019-04-20T07:58:45.949Z,50.60
2019-04-20T08:01:45.298Z,50.30
2019-04-20T08:04:17.461Z,50.40
2019-04-20T08:06:37.886Z,51.10
2019-04-20T08:09:14.552Z,51.30
2019-04-20T08:11:59.624Z,52.10
2019-04-20T08:14:32.187Z,52.00
2019-04-20T08:19:28.674Z,52.60
2019-04-20T08:22:02.588Z,53.20
2019-04-20T08:24:30.539Z,53.50
2019-04-20T08:26:53.085Z,53.90
2019-04-20T08:29:37.851Z,53.70
2019-04-20T08:32:21.428Z,54.10
2019-04-20T08:34:53.534Z,54.20
2019-04-20T08:37:20.644Z,54.60
2019-04-20T08:40:05.320Z,54.30
2019-04-20T08:42:29.866Z,54.20
2019-04-20T08:45:03.960Z,54.40
2019-04-20T08:50:16.781Z,54.20
2019-04-20T08:55:14.574Z,55.60
2019-04-20T08:57:29.493Z,56.00
2019-04-20T09:00:03.105Z,55.70
2019-04-20T09:02:32.678Z,55.40
2019-04-20T09:05:11.671Z,55.00
2019-04-20T09:07:51.313Z,55.30
2019-04-20T09:12:53.244Z,55.60
2019-04-20T09:15:14.752Z,54.80
2019-04-20T09:17:57.555Z,54.40
2019-04-20T09:20:36.763Z,54.00
2019-04-20T09:23:18.187Z,52.90
2019-04-20T09:26:04.753Z,52.00
2019-04-20T09:28:22.364Z,49.00
2019-04-20T09:31:10.869Z,47.80
2019-04-20T09:33:41.790Z,47.90
2019-04-20T09:36:24.174Z,47.30
2019-04-20T09:39:13.819Z,47.20
2019-04-20T09:41:58.831Z,46.40
2019-04-20T09:44:13.406Z,45.20
2019-04-20T09:46:50.922Z,43.80
2019-04-20T09:49:32.473Z,42.70
2019-04-20T09:52:01.465Z,40.80
2019-04-20T09:54:37.040Z,38.10
2019-04-20T09:57:21.852Z,35.60
2019-04-20T09:59:44.694Z,33.90
2019-04-20T10:02:07.051Z,32.40
2019-04-20T10:04:33.383Z,31.20
2019-04-20T10:07:09.607Z,30.10
2019-04-20T10:09:39.850Z,28.90
2019-04-20T10:12:07.892Z,27.90
2019-04-20T10:14:38.849Z,27.50
2019-04-20T10:17:09.680Z,27.20
2019-04-20T10:19:41.329Z,26.80
2019-04-20T10:22:13.061Z,26.50
2019-04-20T10:24:45.921Z,26.20
2019-04-20T10:27:16.788Z,26.00
2019-04-20T10:29:47.078Z,25.80
2019-04-20T10:32:17.844Z,25.50
2019-04-20T10:34:48.562Z,25.40
2019-04-20T10:37:21.642Z,25.30
2019-04-20T10:39:52.410Z,25.10
2019-04-20T10:42:23.862Z,24.90
2019-04-20T10:44:58.629Z,24.80
2019-04-20T10:47:29.259Z,24.60
2019-04-20T10:50:00.848Z,24.50
2019-04-20T10:52:32.086Z,24.50
2019-04-20T10:55:02.898Z,24.50
2019-04-20T10:57:33.438Z,24.40
2019-04-20T11:00:05.888Z,24.20
2019-04-20T11:02:37.188Z,24.10
2019-04-20T11:05:08.697Z,24.00
2019-04-20T11:07:38.977Z,24.10
2019-04-20T11:10:15.735Z,24.10
2019-04-20T11:12:42.222Z,24.10
2019-04-20T11:15:12.601Z,24.10
2019-04-20T11:17:43.541Z,24.10
2019-04-20T11:20:15.104Z,24.10
2019-04-20T11:22:46.374Z,24.10
2019-04-20T11:25:16.767Z,24.00
2019-04-20T11:27:48.104Z,24.00
2019-04-20T11:30:18.451Z,24.00
2019-04-20T11:32:48.660Z,23.90
2019-04-20T11:35:27.857Z,23.80
2019-04-20T11:37:53.313Z,23.80
2019-04-20T11:40:23.758Z,23.80
2019-04-20T11:42:55.304Z,23.70
2019-04-20T11:45:26.723Z,23.60
2019-04-20T11:47:57.826Z,23.60
2019-04-20T11:50:29.554Z,23.60
2019-04-20T11:53:01.583Z,23.60
2019-04-20T11:55:31.884Z,23.60
2019-04-20T11:58:02.113Z,23.60
2019-04-20T12:00:46.932Z,23.60
2019-04-20T12:03:25.042Z,23.60
2019-04-20T12:05:53.690Z,23.60
2019-04-20T12:08:22.924Z,23.50
2019-04-20T12:10:57.660Z,23.50
2019-04-20T12:13:25.201Z,23.50
2019-04-20T12:15:55.984Z,23.50
2019-04-20T12:18:27.610Z,23.50
2019-04-20T12:20:58.880Z,23.50
2019-04-20T12:23:30.381Z,23.50
2019-04-20T12:26:02.002Z,23.40
2019-04-20T12:28:33.619Z,23.40
2019-04-20T12:31:11.931Z,23.40
2019-04-20T12:33:37.509Z,23.40
2019-04-20T12:36:10.250Z,23.40
2019-04-20T12:38:41.331Z,23.30
2019-04-20T12:41:13.978Z,23.20
2019-04-20T12:43:43.674Z,23.20
2019-04-20T12:46:18.348Z,23.20
2019-04-20T12:48:47.543Z,23.20
2019-04-20T12:51:17.882Z,23.20
2019-04-20T12:53:48.759Z,23.20
2019-04-20T12:56:20.312Z,23.20
2019-04-20T12:58:51.647Z,23.20
2019-04-20T13:01:24.503Z,23.20
2019-04-20T13:03:55.642Z,23.20
2019-04-20T13:06:25.912Z,23.20
2019-04-20T13:08:58.954Z,23.30
2019-04-20T13:11:30.804Z,23.30
2019-04-20T13:14:32.659Z,23.30
2019-04-20T13:17:04.184Z,23.20
2019-04-20T13:19:35.561Z,23.20
2019-04-20T13:22:07.231Z,23.20
2019-04-20T13:24:39.094Z,23.10
2019-04-20T13:27:09.379Z,23.20
2019-04-20T13:29:40.557Z,23.20
2019-04-20T13:32:11.748Z,23.20
2019-04-20T13:34:42.321Z,23.30
2019-04-20T13:37:13.852Z,23.30
2019-04-20T13:39:44.769Z,23.30
2019-04-20T13:42:22.395Z,23.20
2019-04-20T13:44:50.689Z,23.30
2019-04-20T13:47:21.066Z,23.30
2019-04-20T13:49:52.484Z,23.30
2019-04-20T13:52:24.731Z,23.30
2019-04-20T13:54:55.892Z,23.30
2019-04-20T13:57:33.516Z,23.40
2019-04-20T14:00:22.164Z,23.30
2019-04-20T14:02:54.175Z,23.30
2019-04-20T14:05:32.815Z,23.30
2019-04-20T14:08:07.846Z,23.40
2019-04-20T14:10:39.591Z,23.40
2019-04-20T14:13:14.815Z,23.30
2019-04-20T14:15:43.491Z,23.30
2019-04-20T14:18:13.697Z,23.30
2019-04-20T14:20:44.629Z,23.30
2019-04-20T14:23:15.080Z,23.20
2019-04-20T14:25:45.283Z,23.20
2019-04-20T14:28:15.546Z,23.20
2019-04-20T14:30:45.967Z,23.30
2019-04-20T14:33:16.933Z,23.30
2019-04-20T14:35:48.340Z,23.30
2019-04-20T14:38:20.134Z,23.30
2019-04-20T14:40:52.567Z,23.30
2019-04-20T14:43:22.838Z,23.30
2019-04-20T14:45:53.072Z,23.10
2019-04-20T14:48:24.905Z,23.10
2019-04-20T14:50:55.981Z,23.10
2019-04-20T14:53:27.854Z,23.20
2019-04-20T14:55:58.060Z,23.20
2019-04-20T14:58:45.260Z,23.20
2019-04-20T15:01:30.346Z,23.20
2019-04-20T15:04:06.862Z,23.20
2019-04-20T15:06:36.723Z,23.20
2019-04-20T15:09:06.589Z,23.20
2019-04-20T15:11:39.680Z,23.10
2019-04-20T15:14:09.061Z,23.10
2019-04-20T15:16:42.670Z,23.10
2019-04-20T15:19:15.724Z,23.10
2019-04-20T15:21:57.755Z,23.10
2019-04-20T15:24:29.296Z,23.10
2019-04-20T15:27:00.564Z,23.00
2019-04-20T15:29:30.789Z,22.90
2019-04-20T15:32:02.114Z,23.00
2019-04-20T15:34:32.982Z,23.00
2019-04-20T15:37:04.388Z,22.90
2019-04-20T15:39:35.361Z,22.90
2019-04-20T15:42:05.573Z,22.90
2019-04-20T15:44:35.796Z,22.80
2019-04-20T15:47:09.031Z,22.80
2019-04-20T15:49:39.934Z,22.80
2019-04-20T15:52:12.441Z,22.70
2019-04-20T15:54:43.338Z,22.70
2019-04-20T15:57:18.333Z,22.70
2019-04-20T15:59:46.491Z,22.70
2019-04-20T16:02:18.287Z,22.70
2019-04-20T16:04:54.326Z,22.60
2019-04-20T16:07:25.485Z,22.60
2019-04-20T16:09:56.883Z,22.60
2019-04-20T16:12:27.217Z,22.50
2019-04-20T16:14:57.724Z,22.50
2019-04-20T16:17:32.753Z,22.50
2019-04-20T16:20:06.441Z,22.50
2019-04-20T16:22:34.156Z,22.40
2019-04-20T16:25:07.565Z,22.40
2019-04-20T16:27:38.189Z,22.40
2019-04-20T16:30:09.695Z,22.40
2019-04-20T16:32:40.697Z,22.30
2019-04-20T16:35:14.100Z,22.30
2019-04-20T16:37:44.832Z,22.30
2019-04-20T16:40:15.624Z,22.30
2019-04-20T16:42:45.975Z,22.20
2019-04-20T16:45:19.057Z,22.10
2019-04-20T16:47:50.187Z,22.20
2019-04-20T16:50:22.712Z,22.10
2019-04-20T16:52:54.961Z,22.00
2019-04-20T16:55:25.382Z,22.00
2019-04-20T16:57:55.733Z,21.90
2019-04-20T17:00:27.413Z,21.90
2019-04-20T17:02:58.477Z,21.80
2019-04-20T17:05:29.231Z,21.80
2019-04-20T17:08:00.896Z,21.70
2019-04-20T17:10:31.200Z,21.60
2019-04-20T17:13:01.878Z,21.50
2019-04-20T17:15:33.922Z,21.40
2019-04-20T17:18:05.595Z,21.40
2019-04-20T17:20:36.798Z,21.30
2019-04-20T17:23:10.612Z,21.30
2019-04-20T17:25:41.827Z,21.20
2019-04-20T17:28:17.406Z,21.10
2019-04-20T17:30:59.167Z,21.10
2019-04-20T17:33:47.177Z,21.00
2019-04-20T17:36:12.444Z,20.90
2019-04-20T17:38:47.118Z,20.80
2019-04-20T17:41:34.121Z,20.70
2019-04-20T17:44:04.173Z,20.60
2019-04-20T17:46:27.284Z,20.50
2019-04-20T17:49:03.130Z,20.40
2019-04-20T17:51:43.125Z,20.30
2019-04-20T17:54:11.112Z,20.20
2019-04-20T17:56:42.536Z,20.10
2019-04-20T17:59:14.321Z,20.00
2019-04-20T18:02:10.261Z,19.90
2019-04-20T18:04:57.488Z,19.80
2019-04-20T18:07:28.428Z,19.70
2019-04-20T18:09:58.787Z,19.60
2019-04-20T18:12:10.452Z,19.40
2019-04-20T18:14:48.954Z,19.30
2019-04-20T18:17:32.085Z,19.10
2019-04-20T18:19:54.552Z,19.00
2019-04-20T18:22:27.767Z,18.90
2019-04-20T18:25:22.349Z,18.80
2019-04-20T18:27:48.316Z,18.70
2019-04-20T18:30:18.694Z,18.60
2019-04-20T18:32:38.255Z,18.60
2019-04-20T18:35:16.334Z,18.50
2019-04-20T18:37:52.513Z,18.50
2019-04-20T18:40:29.000Z,18.40
2019-04-20T18:43:03.947Z,18.40
2019-04-20T18:45:39.729Z,18.40
2019-04-20T18:48:18.429Z,18.40
2019-04-20T18:50:35.580Z,18.30
2019-04-20T18:53:00.108Z,18.30
2019-04-20T18:55:43.106Z,18.10
2019-04-20T18:58:02.456Z,18.10
2019-04-20T19:00:38.868Z,18.00
2019-04-20T19:03:12.072Z,17.90
2019-04-20T19:05:37.965Z,17.80
2019-04-20T19:08:11.785Z,17.80
2019-04-20T19:10:43.623Z,17.70
2019-04-20T19:13:36.776Z,17.70
2019-04-20T19:16:23.005Z,17.60
2019-04-20T19:19:05.362Z,17.50
2019-04-20T19:21:22.967Z,17.50
2019-04-20T19:24:00.286Z,17.40
2019-04-20T19:26:26.735Z,17.30
2019-04-20T19:29:08.766Z,17.30
2019-04-20T19:31:47.456Z,17.20
2019-04-20T19:34:22.415Z,17.20
2019-04-20T19:36:41.758Z,17.10
2019-04-20T19:39:22.954Z,17.10
2019-04-20T19:41:49.481Z,17.10
2019-04-20T19:44:26.757Z,17.10
2019-04-20T19:47:05.078Z,17.10
2019-04-20T19:49:30.473Z,17.10
2019-04-20T19:52:20.474Z,17.00
2019-04-20T19:54:43.090Z,17.00
2019-04-20T19:57:05.633Z,17.00
2019-04-20T19:59:34.293Z,17.00
2019-04-20T20:02:00.112Z,16.90
2019-04-20T20:04:32.206Z,16.90
2019-04-20T20:07:06.766Z,16.90
2019-04-20T20:09:39.582Z,16.80
2019-04-20T20:12:12.273Z,16.80
2019-04-20T20:14:42.942Z,16.70
2019-04-20T20:17:32.855Z,16.60
2019-04-20T20:20:13.105Z,16.50
2019-04-20T20:22:25.405Z,16.50
2019-04-20T20:24:47.158Z,16.50
2019-04-20T20:27:24.030Z,16.50
2019-04-20T20:29:59.480Z,16.50
2019-04-20T20:32:39.104Z,16.40
2019-04-20T20:35:07.228Z,16.40
2019-04-20T20:37:34.684Z,16.30
2019-04-20T20:40:12.945Z,16.20
2019-04-20T20:42:48.647Z,16.20
2019-04-20T20:45:16.137Z,16.20
2019-04-20T20:47:53.959Z,16.20
2019-04-20T20:50:32.635Z,16.10
2019-04-20T20:52:57.793Z,16.10
2019-04-20T20:55:27.192Z,16.00
2019-04-20T20:57:56.295Z,16.00
2019-04-20T21:00:28.280Z,15.90
2019-04-20T21:02:56.703Z,15.90
2019-04-20T21:05:23.976Z,15.90
2019-04-20T21:07:55.449Z,15.80
2019-04-20T21:10:31.991Z,15.90
2019-04-20T21:13:03.104Z,15.80
2019-04-20T21:15:31.196Z,15.80
2019-04-20T21:18:20.599Z,15.80
2019-04-20T21:20:55.133Z,15.70
2019-04-20T21:23:18.782Z,15.70
2019-04-20T21:25:59.010Z,15.70
2019-04-20T21:28:29.342Z,15.70
2019-04-20T21:31:08.133Z,15.60
2019-04-20T21:33:34.900Z,15.50
2019-04-20T21:36:07.113Z,15.50
2019-04-20T21:38:40.796Z,15.40
2019-04-20T21:41:14.466Z,15.40
2019-04-20T21:43:44.390Z,15.40
2019-04-20T21:46:14.079Z,15.50
2019-04-20T21:49:00.597Z,15.40
2019-04-20T21:51:30.403Z,15.40
2019-04-20T21:53:48.477Z,15.40
2019-04-20T21:56:21.613Z,15.40
2019-04-20T21:58:57.528Z,15.40
2019-04-20T22:01:33.647Z,15.30
2019-04-20T22:03:58.539Z,15.20
2019-04-20T22:06:29.025Z,15.20
2019-04-20T22:09:01.075Z,15.20
2019-04-20T22:11:31.592Z,15.20
2019-04-20T22:14:10.768Z,15.20
2019-04-20T22:16:38.877Z,15.20
2019-04-20T22:19:22.338Z,15.20
2019-04-20T22:21:50.345Z,15.20
2019-04-20T22:24:28.440Z,15.20
2019-04-20T22:26:55.022Z,15.20
2019-04-20T22:29:16.191Z,15.20
2019-04-20T22:31:56.464Z,15.30
2019-04-20T22:34:21.404Z,15.30
2019-04-20T22:36:52.093Z,15.30
2019-04-20T22:39:31.948Z,15.30
2019-04-20T22:42:07.386Z,15.30
2019-04-20T22:44:34.835Z,15.30
2019-04-20T22:47:12.296Z,15.20
2019-04-20T22:49:48.262Z,15.20
2019-04-20T22:52:26.642Z,15.10
2019-04-20T22:54:55.037Z,15.10
2019-04-20T22:57:31.575Z,15.10
2019-04-20T22:59:54.314Z,15.10
2019-04-20T23:02:19.882Z,15.00
2019-04-20T23:04:49.016Z,15.00
2019-04-20T23:07:19.249Z,15.00
2019-04-20T23:09:54.214Z,14.90
2019-04-20T23:12:24.852Z,14.90
2019-04-20T23:14:54.344Z,14.80
2019-04-20T23:17:33.537Z,14.80
2019-04-20T23:20:00.926Z,14.80
2019-04-20T23:22:36.872Z,14.70
2019-04-20T23:25:04.880Z,14.70
2019-04-20T23:27:38.316Z,14.60
2019-04-20T23:30:14.684Z,14.60
2019-04-20T23:32:39.919Z,14.60
2019-04-20T23:35:15.015Z,14.50
2019-04-20T23:37:43.783Z,14.50
2019-04-20T23:40:16.391Z,14.50
2019-04-20T23:43:10.206Z,14.50
2019-04-20T23:45:44.148Z,14.50
2019-04-20T23:48:30.557Z,14.50
2019-04-20T23:51:09.909Z,14.50
2019-04-20T23:53:46.516Z,14.50
2019-04-20T23:56:02.008Z,14.50
2019-04-20T23:58:38.219Z,14.50
